createdAt,value
2022-08-17T00:01:20.982Z,19.90
2022-08-17T00:03:48.476Z,19.80
2022-08-17T00:06:21.929Z,19.80
2022-08-17T00:08:53.116Z,19.70
2022-08-17T00:11:20.680Z,19.90
2022-08-17T00:13:48.245Z,19.80
2022-08-17T00:16:18.578Z,19.70
2022-08-17T00:18:56.774Z,19.90
2022-08-17T00:21:14.472Z,19.80
2022-08-17T00:23:47.698Z,19.80
2022-08-17T00:26:09.918Z,19.70
2022-08-17T00:28:37.470Z,19.70
2022-08-17T00:31:05.064Z,19.60
2022-08-17T00:33:32.628Z,19.60
2022-08-17T00:36:00.980Z,19.50
2022-08-17T00:38:29.591Z,19.50
2022-08-17T00:40:59.333Z,19.50
2022-08-17T00:43:31.373Z,19.50
2022-08-17T00:46:00.128Z,19.40
2022-08-17T00:48:30.097Z,19.40
2022-08-17T00:51:10.351Z,19.40
2022-08-17T00:53:37.935Z,19.60
2022-08-17T00:56:05.489Z,19.50
2022-08-17T00:58:36.123Z,19.50
2022-08-17T01:01:00.794Z,19.40
2022-08-17T01:03:29.000Z,19.60
2022-08-17T01:05:56.595Z,19.60
2022-08-17T01:08:24.149Z,19.50
2022-08-17T01:10:58.691Z,19.50
2022-08-17T01:13:20.469Z,19.60
2022-08-17T01:15:53.567Z,19.60
2022-08-17T01:18:21.133Z,19.80
2022-08-17T01:20:48.976Z,19.70
2022-08-17T01:23:20.599Z,19.60
2022-08-17T01:25:43.923Z,19.50
2022-08-17T01:28:11.595Z,19.50
2022-08-17T01:30:58.856Z,19.40
2022-08-17T01:33:06.715Z,19.60
2022-08-17T01:35:34.326Z,19.90
2022-08-17T01:38:01.882Z,20.10
2022-08-17T01:40:38.110Z,19.90
2022-08-17T01:43:17.657Z,19.80
2022-08-17T01:45:45.212Z,19.70
2022-08-17T01:48:12.795Z,19.60
2022-08-17T01:50:41.128Z,19.50
2022-08-17T01:53:08.692Z,19.50
2022-08-17T01:55:39.289Z,19.50
2022-08-17T01:58:06.873Z,19.40
2022-08-17T02:00:46.865Z,19.60
2022-08-17T02:03:01.991Z,19.60
2022-08-17T02:05:29.861Z,19.50
2022-08-17T02:08:00.376Z,19.40
2022-08-17T02:10:24.981Z,19.40
2022-08-17T02:12:52.768Z,19.30
2022-08-17T02:15:20.147Z,19.30
2022-08-17T02:17:47.741Z,19.30
2022-08-17T02:20:15.326Z,19.30
2022-08-17T02:22:42.959Z,19.30
2022-08-17T02:25:10.458Z,19.20
2022-08-17T02:27:38.048Z,19.40
2022-08-17T02:30:59.600Z,19.40
2022-08-17T02:32:33.934Z,19.40
2022-08-17T02:35:01.549Z,19.40
2022-08-17T02:37:29.133Z,19.40
2022-08-17T02:39:56.796Z,19.40
2022-08-17T02:42:27.442Z,19.40
2022-08-17T02:44:54.986Z,19.30
2022-08-17T02:47:22.561Z,19.30
2022-08-17T02:49:54.361Z,19.20
2022-08-17T02:52:17.730Z,19.10
2022-08-17T02:54:45.293Z,19.00
2022-08-17T02:57:12.936Z,19.00
2022-08-17T02:59:42.375Z,19.00
2022-08-17T03:02:08.067Z,19.00
2022-08-17T03:04:35.669Z,19.00
2022-08-17T03:07:03.191Z,19.00
2022-08-17T03:09:30.757Z,18.90
2022-08-17T03:12:07.379Z,19.20
2022-08-17T03:14:39.391Z,19.20
2022-08-17T03:17:02.479Z,19.20
2022-08-17T03:19:30.840Z,19.20
2022-08-17T03:21:59.172Z,19.20
2022-08-17T03:24:28.910Z,19.20
2022-08-17T03:26:54.311Z,19.20
2022-08-17T03:29:21.878Z,19.20
2022-08-17T03:31:49.510Z,19.20
2022-08-17T03:34:17.096Z,19.40
2022-08-17T03:36:44.647Z,19.70
2022-08-17T03:39:12.201Z,19.70
2022-08-17T03:41:39.786Z,19.60
2022-08-17T03:44:07.359Z,19.80
2022-08-17T03:46:53.968Z,20.00
2022-08-17T03:49:40.297Z,19.90
2022-08-17T03:52:26.206Z,19.90
2022-08-17T03:55:11.847Z,19.80
2022-08-17T03:57:40.189Z,19.60
2022-08-17T04:00:07.755Z,19.60
2022-08-17T04:02:35.308Z,19.60
2022-08-17T04:05:03.167Z,19.80
2022-08-17T04:07:30.737Z,20.00
2022-08-17T04:09:58.384Z,19.80
2022-08-17T04:12:25.878Z,19.70
2022-08-17T04:14:55.065Z,19.50
2022-08-17T04:17:20.979Z,19.40
2022-08-17T04:19:48.573Z,19.30
2022-08-17T04:22:33.264Z,19.40
2022-08-17T04:24:44.492Z,19.30
2022-08-17T04:27:12.083Z,19.30
2022-08-17T04:29:54.227Z,19.10
2022-08-17T04:32:07.973Z,19.10
2022-08-17T04:34:35.564Z,19.10
2022-08-17T04:37:03.138Z,19.30
2022-08-17T04:39:33.744Z,19.10
2022-08-17T04:42:07.965Z,19.20
2022-08-17T04:44:37.730Z,19.10
2022-08-17T04:47:03.084Z,19.10
2022-08-17T04:49:30.698Z,19.10
2022-08-17T04:52:01.272Z,19.10
2022-08-17T04:54:25.837Z,19.10
2022-08-17T04:56:53.437Z,19.10
2022-08-17T04:59:20.984Z,19.10
2022-08-17T05:01:48.612Z,19.10
2022-08-17T05:04:33.494Z,19.10
2022-08-17T05:06:46.730Z,19.30
2022-08-17T05:09:14.264Z,19.30
2022-08-17T05:11:44.961Z,19.30
2022-08-17T05:14:09.435Z,19.30
2022-08-17T05:16:37.764Z,19.20
2022-08-17T05:19:05.349Z,19.20
2022-08-17T05:21:32.915Z,19.20
2022-08-17T05:24:00.467Z,19.10
2022-08-17T05:26:29.430Z,19.10
2022-08-17T05:28:57.286Z,19.00
2022-08-17T05:31:24.059Z,19.00
2022-08-17T05:33:51.640Z,18.90
2022-08-17T05:36:42.517Z,18.90
2022-08-17T05:38:46.751Z,18.90
2022-08-17T05:41:14.354Z,19.10
2022-08-17T05:43:41.906Z,19.10
2022-08-17T05:46:28.376Z,19.00
2022-08-17T05:49:01.723Z,19.00
2022-08-17T05:51:32.595Z,19.00
2022-08-17T05:54:19.034Z,18.90
2022-08-17T05:56:52.356Z,18.90
2022-08-17T05:59:34.901Z,18.90
2022-08-17T06:02:29.941Z,18.90
2022-08-17T06:05:03.137Z,18.90
2022-08-17T06:07:37.241Z,18.90
2022-08-17T06:10:25.940Z,18.90
2022-08-17T06:12:58.984Z,18.90
2022-08-17T06:15:29.668Z,19.00
2022-08-17T06:18:03.072Z,19.20
2022-08-17T06:20:30.657Z,19.20
2022-08-17T06:22:58.240Z,19.10
2022-08-17T06:25:47.367Z,19.10
2022-08-17T06:28:14.957Z,19.20
2022-08-17T06:30:59.845Z,19.40
2022-08-17T06:33:10.124Z,19.40
2022-08-17T06:35:40.653Z,19.40
2022-08-17T06:38:37.816Z,19.60
2022-08-17T06:41:03.005Z,19.50
2022-08-17T06:43:46.144Z,19.50
2022-08-17T06:46:16.379Z,19.30
2022-08-17T06:48:49.703Z,19.30
2022-08-17T06:51:28.954Z,19.20
2022-08-17T06:54:00.314Z,19.10
2022-08-17T06:56:54.277Z,19.00
2022-08-17T06:59:20.234Z,19.00
2022-08-17T07:01:47.797Z,18.90
2022-08-17T07:04:21.113Z,19.20
2022-08-17T07:06:51.371Z,19.20
2022-08-17T07:09:36.924Z,19.20
2022-08-17T07:12:16.708Z,19.10
2022-08-17T07:14:44.271Z,19.40
2022-08-17T07:17:11.836Z,19.30
2022-08-17T07:19:42.460Z,19.50
2022-08-17T07:22:55.244Z,19.40
2022-08-17T07:24:58.859Z,19.30
2022-08-17T07:27:38.554Z,19.30
2022-08-17T07:30:15.473Z,19.20
2022-08-17T07:32:43.033Z,19.50
2022-08-17T07:35:31.350Z,19.40
2022-08-17T07:38:25.185Z,19.40
2022-08-17T07:40:48.680Z,19.40
2022-08-17T07:43:23.259Z,19.40
2022-08-17T07:46:08.538Z,19.30
2022-08-17T07:48:36.097Z,19.30
2022-08-17T07:51:03.653Z,19.30
2022-08-17T07:53:31.255Z,19.30
2022-08-17T07:55:59.588Z,19.80
2022-08-17T07:58:27.154Z,19.80
2022-08-17T08:01:06.819Z,19.70
2022-08-17T08:03:34.389Z,19.70
2022-08-17T08:06:01.955Z,19.60
2022-08-17T08:08:43.276Z,19.60
2022-08-17T08:11:13.744Z,19.60
2022-08-17T08:13:41.319Z,19.60
2022-08-17T08:16:18.475Z,19.60
2022-08-17T08:18:56.066Z,19.90
2022-08-17T08:21:22.376Z,20.00
2022-08-17T08:23:52.657Z,20.00
2022-08-17T08:26:30.160Z,20.00
2022-08-17T08:29:03.320Z,20.10
2022-08-17T08:31:55.265Z,20.20
2022-08-17T08:34:44.546Z,20.30
2022-08-17T08:37:17.646Z,20.60
2022-08-17T08:39:44.609Z,20.60
2022-08-17T08:42:19.112Z,20.80
2022-08-17T08:45:00.263Z,20.70
2022-08-17T08:47:17.689Z,20.70
2022-08-17T08:50:37.049Z,20.70
2022-08-17T08:53:08.709Z,20.60
2022-08-17T08:55:48.097Z,20.60
2022-08-17T08:58:31.314Z,20.80
2022-08-17T09:00:46.215Z,20.80
2022-08-17T09:03:19.438Z,21.00
2022-08-17T09:06:01.747Z,21.00
2022-08-17T09:08:32.128Z,21.00
2022-08-17T09:11:05.863Z,21.30
2022-08-17T09:14:21.484Z,21.30
2022-08-17T09:16:38.270Z,21.30
2022-08-17T09:19:06.025Z,21.60
2022-08-17T09:21:51.481Z,21.60
2022-08-17T09:24:25.157Z,21.80
2022-08-17T09:26:58.409Z,21.80
2022-08-17T09:29:25.973Z,22.00
2022-08-17T09:31:56.287Z,21.90
2022-08-17T09:34:33.424Z,21.90
2022-08-17T09:37:06.666Z,21.90
2022-08-17T09:39:37.044Z,21.90
2022-08-17T09:42:13.960Z,22.20
2022-08-17T09:44:41.536Z,22.40
2022-08-17T09:47:42.876Z,22.60
2022-08-17T09:50:14.020Z,22.60
2022-08-17T09:52:41.612Z,22.60
2022-08-17T09:55:09.986Z,22.70
2022-08-17T09:57:59.260Z,22.70
2022-08-17T10:00:26.865Z,22.70
2022-08-17T10:03:09.121Z,22.60
2022-08-17T10:05:42.622Z,22.50
2022-08-17T10:08:37.731Z,22.40
2022-08-17T10:11:11.921Z,22.40
2022-08-17T10:13:53.469Z,22.30
2022-08-17T10:16:37.977Z,22.40
2022-08-17T10:19:24.120Z,22.40
2022-08-17T10:22:14.956Z,22.30
2022-08-17T10:25:21.857Z,22.40
2022-08-17T10:27:23.177Z,22.30
2022-08-17T10:29:53.301Z,22.30
2022-08-17T10:32:29.920Z,22.30
2022-08-17T10:35:22.541Z,22.40
2022-08-17T10:37:50.380Z,22.40
2022-08-17T10:40:17.790Z,22.40
2022-08-17T10:43:22.758Z,22.40
2022-08-17T10:46:10.642Z,22.40
2022-08-17T10:48:27.407Z,22.60
2022-08-17T10:51:00.762Z,22.60
2022-08-17T10:53:38.102Z,23.20
2022-08-17T10:56:14.877Z,23.20
2022-08-17T10:58:57.175Z,23.60
2022-08-17T11:01:36.560Z,23.60
2022-08-17T11:04:09.527Z,23.70
2022-08-17T11:06:39.758Z,23.70
2022-08-17T11:09:26.768Z,23.80
2022-08-17T11:12:31.216Z,23.90
2022-08-17T11:15:02.181Z,24.00
2022-08-17T11:18:07.434Z,24.00
2022-08-17T11:20:53.535Z,24.00
2022-08-17T11:23:38.968Z,24.00
2022-08-17T11:26:06.562Z,24.30
2022-08-17T11:28:34.171Z,24.50
2022-08-17T11:31:37.958Z,24.70
2022-08-17T11:33:56.942Z,24.90
2022-08-17T11:36:46.001Z,24.90
2022-08-17T11:39:31.641Z,24.90
2022-08-17T11:42:01.650Z,24.90
2022-08-17T11:44:50.660Z,24.90
2022-08-17T11:47:39.077Z,24.90
2022-08-17T11:50:45.579Z,24.90
2022-08-17T11:53:37.563Z,24.90
2022-08-17T11:56:30.037Z,24.90
2022-08-17T11:58:57.649Z,24.90
2022-08-17T12:01:25.215Z,24.90
2022-08-17T12:03:55.465Z,25.00
2022-08-17T12:06:32.333Z,25.10
2022-08-17T12:09:06.747Z,25.60
2022-08-17T12:12:01.542Z,25.80
2022-08-17T12:14:19.192Z,25.70
2022-08-17T12:16:42.574Z,25.80
2022-08-17T12:19:10.344Z,25.90
2022-08-17T12:21:49.925Z,26.00
2022-08-17T12:24:29.213Z,26.00
2022-08-17T12:26:56.762Z,26.00
2022-08-17T12:29:35.427Z,26.20
2022-08-17T12:31:53.184Z,26.20
2022-08-17T12:34:20.750Z,26.20
2022-08-17T12:36:49.077Z,26.40
2022-08-17T12:39:21.336Z,26.40
2022-08-17T12:41:47.203Z,26.40
2022-08-17T12:44:20.631Z,26.60
2022-08-17T12:46:53.993Z,26.70
2022-08-17T12:49:26.932Z,26.80
2022-08-17T12:51:54.487Z,26.90
2022-08-17T12:54:22.086Z,27.20
2022-08-17T12:56:49.661Z,27.20
2022-08-17T12:59:17.252Z,27.30
2022-08-17T13:01:45.670Z,27.20
2022-08-17T13:04:13.952Z,27.10
2022-08-17T13:06:41.548Z,27.10
2022-08-17T13:09:12.046Z,27.10
2022-08-17T13:11:39.603Z,27.00
2022-08-17T13:14:10.077Z,27.00
2022-08-17T13:16:38.418Z,26.80
2022-08-17T13:19:14.612Z,26.80
2022-08-17T13:21:50.738Z,26.80
2022-08-17T13:24:18.309Z,26.70
2022-08-17T13:27:08.286Z,26.70
2022-08-17T13:29:51.351Z,26.80
2022-08-17T13:32:39.954Z,26.90
2022-08-17T13:35:32.431Z,26.90
2022-08-17T13:38:02.267Z,27.00
2022-08-17T13:40:33.368Z,26.90
2022-08-17T13:43:00.917Z,26.90
2022-08-17T13:45:36.858Z,26.90
2022-08-17T13:48:23.895Z,27.10
2022-08-17T13:50:57.626Z,27.20
2022-08-17T13:53:27.603Z,27.20
2022-08-17T13:56:37.293Z,27.30
2022-08-17T13:58:40.553Z,27.50
2022-08-17T14:01:29.787Z,27.60
2022-08-17T14:03:57.279Z,27.50
2022-08-17T14:06:53.271Z,27.50
2022-08-17T14:08:55.102Z,27.50
2022-08-17T14:11:22.631Z,27.40
2022-08-17T14:13:50.205Z,27.40
2022-08-17T14:16:17.781Z,27.50
2022-08-17T14:18:56.735Z,27.80
2022-08-17T14:21:13.672Z,27.80
2022-08-17T14:23:41.269Z,27.80
2022-08-17T14:26:08.816Z,27.80
2022-08-17T14:28:36.617Z,27.80
2022-08-17T14:31:03.971Z,28.00
2022-08-17T14:33:32.290Z,28.30
2022-08-17T14:35:59.863Z,28.30
2022-08-17T14:38:27.449Z,28.30
2022-08-17T14:40:54.998Z,28.20
2022-08-17T14:43:22.559Z,28.10
2022-08-17T14:45:50.163Z,28.20
2022-08-17T14:48:17.740Z,28.30
2022-08-17T14:50:45.312Z,28.30
2022-08-17T14:53:12.904Z,28.20
2022-08-17T14:55:40.608Z,28.00
2022-08-17T14:58:08.073Z,28.00
2022-08-17T15:00:35.690Z,28.10
2022-08-17T15:03:03.269Z,28.10
2022-08-17T15:05:30.816Z,28.10
2022-08-17T15:07:58.399Z,28.10
2022-08-17T15:10:26.719Z,28.20
2022-08-17T15:12:54.264Z,28.20
2022-08-17T15:15:22.765Z,28.10
2022-08-17T15:17:50.318Z,28.00
2022-08-17T15:20:17.892Z,27.90
2022-08-17T15:22:45.506Z,27.90
2022-08-17T15:25:13.841Z,28.00
2022-08-17T15:27:41.385Z,27.90
2022-08-17T15:30:09.254Z,28.00
2022-08-17T15:32:36.841Z,28.10
2022-08-17T15:35:04.417Z,28.20
2022-08-17T15:37:32.770Z,28.20
2022-08-17T15:40:00.530Z,28.20
2022-08-17T15:42:27.879Z,28.20
2022-08-17T15:44:55.470Z,28.20
2022-08-17T15:47:23.026Z,28.30
2022-08-17T15:49:50.574Z,28.30
2022-08-17T15:52:19.339Z,28.30
2022-08-17T15:54:52.432Z,28.50
2022-08-17T15:57:20.014Z,28.50
2022-08-17T15:59:47.614Z,28.40
2022-08-17T16:03:14.515Z,28.20
2022-08-17T16:04:44.128Z,28.20
2022-08-17T16:07:11.074Z,28.10
2022-08-17T16:09:39.078Z,28.00
2022-08-17T16:12:10.098Z,27.90
2022-08-17T16:14:37.678Z,27.80
2022-08-17T16:17:06.035Z,27.80
2022-08-17T16:19:33.590Z,27.80
2022-08-17T16:22:01.245Z,27.70
2022-08-17T16:24:28.771Z,27.70
2022-08-17T16:26:56.346Z,27.90
2022-08-17T16:29:23.927Z,27.80
2022-08-17T16:31:51.501Z,27.80
2022-08-17T16:34:19.096Z,27.70
2022-08-17T16:36:51.786Z,27.80
2022-08-17T16:39:15.385Z,28.00
2022-08-17T16:41:45.528Z,28.20
2022-08-17T16:44:15.954Z,28.50
2022-08-17T16:46:45.876Z,28.80
2022-08-17T16:49:11.863Z,29.50
2022-08-17T16:51:39.455Z,29.50
2022-08-17T16:54:07.008Z,29.80
2022-08-17T16:56:34.585Z,29.80
2022-08-17T16:59:14.285Z,30.00
2022-08-17T17:01:30.883Z,30.00
2022-08-17T17:03:58.508Z,30.10
2022-08-17T17:06:44.272Z,30.30
2022-08-17T17:09:11.831Z,30.30
2022-08-17T17:11:42.316Z,30.20
2022-08-17T17:14:15.607Z,30.10
2022-08-17T17:16:54.837Z,30.20
2022-08-17T17:19:35.131Z,30.00
2022-08-17T17:22:13.732Z,29.80
2022-08-17T17:24:50.619Z,29.60
2022-08-17T17:27:52.070Z,29.40
2022-08-17T17:30:25.434Z,29.30
2022-08-17T17:33:20.092Z,29.10
2022-08-17T17:36:03.019Z,28.90
2022-08-17T17:38:30.669Z,28.70
2022-08-17T17:41:03.052Z,28.60
2022-08-17T17:43:38.824Z,28.70
2022-08-17T17:45:58.762Z,28.80
2022-08-17T17:48:26.313Z,28.70
2022-08-17T17:50:59.597Z,28.70
2022-08-17T17:53:41.625Z,28.60
2022-08-17T17:56:43.206Z,28.40
2022-08-17T17:59:12.530Z,28.20
2022-08-17T18:01:38.966Z,28.00
2022-08-17T18:04:21.491Z,27.80
2022-08-17T18:06:54.497Z,27.70
2022-08-17T18:09:24.726Z,27.50
2022-08-17T18:12:10.408Z,27.40
2022-08-17T18:15:02.028Z,27.30
2022-08-17T18:17:29.613Z,27.20
2022-08-17T18:19:57.177Z,27.00
2022-08-17T18:22:24.750Z,26.90
2022-08-17T18:24:55.156Z,26.80
2022-08-17T18:27:25.169Z,27.00
2022-08-17T18:29:52.723Z,26.80
2022-08-17T18:32:27.269Z,27.00
2022-08-17T18:35:10.168Z,27.10
2022-08-17T18:37:47.183Z,26.90
2022-08-17T18:40:17.339Z,26.90
2022-08-17T18:43:16.133Z,26.70
2022-08-17T18:45:46.475Z,26.70
2022-08-17T18:48:32.833Z,26.30
2022-08-17T18:50:59.222Z,26.10
2022-08-17T18:53:35.732Z,25.90
2022-08-17T18:56:16.356Z,25.80
2022-08-17T18:58:43.912Z,25.80
2022-08-17T19:01:17.597Z,25.60
2022-08-17T19:03:46.164Z,25.30
2022-08-17T19:06:22.882Z,25.20
2022-08-17T19:08:50.461Z,25.10
2022-08-17T19:11:20.706Z,24.90
2022-08-17T19:14:03.857Z,24.80
2022-08-17T19:16:46.693Z,24.80
2022-08-17T19:19:22.911Z,24.60
2022-08-17T19:21:57.102Z,24.30
2022-08-17T19:24:24.676Z,24.30
2022-08-17T19:27:01.102Z,24.20
2022-08-17T19:29:37.421Z,24.00
2022-08-17T19:32:05.752Z,23.80
2022-08-17T19:34:34.441Z,23.80
2022-08-17T19:37:00.919Z,23.70
2022-08-17T19:39:38.028Z,23.40
2022-08-17T19:42:05.357Z,23.40
2022-08-17T19:44:54.376Z,23.30
2022-08-17T19:47:53.186Z,23.20
2022-08-17T19:50:00.661Z,23.10
2022-08-17T19:52:34.231Z,23.00
2022-08-17T19:55:18.288Z,23.20
2022-08-17T19:58:11.184Z,23.40
2022-08-17T20:00:38.798Z,23.20
2022-08-17T20:03:16.344Z,23.10
2022-08-17T20:06:12.134Z,23.20
2022-08-17T20:08:28.135Z,23.10
2022-08-17T20:11:04.389Z,23.00
2022-08-17T20:13:47.252Z,22.80
2022-08-17T20:16:15.607Z,22.50
2022-08-17T20:18:52.397Z,22.50
2022-08-17T20:21:35.595Z,22.60
2022-08-17T20:24:06.369Z,22.60
2022-08-17T20:26:58.552Z,22.50
2022-08-17T20:29:36.918Z,22.30
2022-08-17T20:31:51.323Z,22.10
2022-08-17T20:34:24.644Z,22.10
2022-08-17T20:37:10.080Z,22.00
2022-08-17T20:39:50.928Z,22.00
2022-08-17T20:42:21.110Z,22.00
2022-08-17T20:44:48.664Z,21.90
2022-08-17T20:47:27.470Z,21.90
2022-08-17T20:50:01.673Z,21.80
2022-08-17T20:52:41.024Z,21.80
2022-08-17T20:55:08.588Z,21.70
2022-08-17T20:57:36.133Z,21.70
2022-08-17T21:00:28.120Z,21.60
2022-08-17T21:03:20.068Z,21.60
2022-08-17T21:06:00.714Z,21.50
2022-08-17T21:08:54.947Z,21.50
2022-08-17T21:11:58.226Z,21.40
2022-08-17T21:14:11.126Z,21.40
2022-08-17T21:17:06.950Z,21.60
2022-08-17T21:20:09.839Z,21.50
2022-08-17T21:22:50.961Z,21.50
2022-08-17T21:25:21.193Z,21.40
2022-08-17T21:27:48.747Z,21.20
2022-08-17T21:30:16.361Z,21.20
2022-08-17T21:32:44.684Z,21.10
2022-08-17T21:35:14.678Z,21.10
2022-08-17T21:37:45.615Z,21.00
2022-08-17T21:40:18.764Z,21.00
2022-08-17T21:42:46.076Z,20.90
2022-08-17T21:45:35.625Z,20.80
2022-08-17T21:48:06.945Z,20.80
2022-08-17T21:50:34.486Z,20.70
2022-08-17T21:53:04.820Z,20.80
2022-08-17T21:55:32.382Z,20.90
2022-08-17T21:58:13.649Z,21.20
2022-08-17T22:00:33.506Z,21.10
2022-08-17T22:03:04.151Z,20.90
2022-08-17T22:05:36.965Z,21.10
2022-08-17T22:08:07.000Z,21.00
2022-08-17T22:10:37.068Z,20.90
2022-08-17T22:13:19.963Z,20.80
2022-08-17T22:15:50.185Z,20.70
2022-08-17T22:18:20.949Z,20.50
2022-08-17T22:20:48.532Z,20.50
2022-08-17T22:23:34.194Z,20.50
2022-08-17T22:26:04.785Z,20.60
2022-08-17T22:28:44.407Z,20.60
2022-08-17T22:31:14.659Z,20.50
2022-08-17T22:33:52.558Z,20.40
2022-08-17T22:36:29.133Z,20.50
2022-08-17T22:38:54.668Z,20.40
2022-08-17T22:41:28.072Z,20.40
2022-08-17T22:43:55.700Z,20.30
2022-08-17T22:46:24.037Z,20.10
2022-08-17T22:48:51.601Z,20.10
2022-08-17T22:51:19.453Z,20.00
2022-08-17T22:54:05.186Z,20.20
2022-08-17T22:56:51.753Z,20.10
2022-08-17T22:59:40.965Z,20.00
2022-08-17T23:02:24.137Z,19.70
2022-08-17T23:04:54.310Z,19.70
2022-08-17T23:07:22.632Z,19.50
2022-08-17T23:09:50.285Z,19.50
2022-08-17T23:12:17.887Z,19.50
2022-08-17T23:14:48.337Z,19.40
2022-08-17T23:17:16.701Z,19.60
2022-08-17T23:19:44.276Z,19.60
2022-08-17T23:22:11.848Z,19.60
2022-08-17T23:24:43.463Z,19.60
2022-08-17T23:27:11.043Z,19.60
2022-08-17T23:29:38.567Z,19.50
2022-08-17T23:32:06.195Z,19.40
2022-08-17T23:34:33.714Z,19.30
2022-08-17T23:37:01.289Z,19.30
2022-08-17T23:39:29.704Z,19.70
2022-08-17T23:42:00.021Z,19.70
2022-08-17T23:44:27.621Z,19.60
2022-08-17T23:46:55.159Z,19.40
2022-08-17T23:49:22.733Z,19.40
2022-08-17T23:51:50.329Z,19.30
2022-08-17T23:54:17.960Z,19.20
2022-08-17T23:56:48.204Z,19.00
2022-08-17T23:59:15.769Z,19.30
